Time;durP1;ratioP1;P1;durP2;ratioP2;P2;SDS_P1;SDS_P2;PMS_P1;PMS_P2;Temp;Humidity;BMP_temperature;BMP_pressure;BME280_temperature;BME280_humidity;BME280_pressure;Samples;Min_cycle;Max_cycle;Signal;HPM_P1;HPM_P2
2022/02/19 00:00:42;;;;;;;0.40;0.30;;;;;;;8.50;56.13;98819.13;5013432;28;20479;-74
2022/02/19 00:03:11;;;;;;;0.40;0.30;;;;;;;8.54;56.70;98807.38;5013618;28;20464;-73
2022/02/19 00:05:39;;;;;;;0.40;0.20;;;;;;;8.48;54.66;98781.69;5013342;28;20834;-75
2022/02/19 00:08:08;;;;;;;0.40;0.30;;;;;;;8.46;55.42;98808.22;5013326;28;20805;-75
2022/02/19 00:10:35;;;;;;;0.40;0.20;;;;;;;8.53;53.73;98835.44;5013644;28;20456;-73
2022/02/19 00:13:01;;;;;;;0.40;0.30;;;;;;;8.58;54.82;98829.06;5013477;28;20494;-74
2022/02/19 00:15:29;;;;;;;0.40;0.30;;;;;;;8.55;54.45;98837.84;5013221;28;20964;-74
2022/02/19 00:17:55;;;;;;;0.40;0.20;;;;;;;8.53;55.16;98830.06;5013490;28;20454;-73
2022/02/19 00:20:23;;;;;;;0.40;0.27;;;;;;;8.53;55.87;98845.44;5013206;28;20459;-74
2022/02/19 00:22:50;;;;;;;0.40;0.30;;;;;;;8.50;55.75;98829.91;5013464;28;20847;-74
2022/02/19 00:25:16;;;;;;;0.40;0.20;;;;;;;8.48;56.68;98816.75;5013069;28;20849;-74
2022/02/19 00:27:44;;;;;;;0.40;0.20;;;;;;;8.46;57.12;98824.41;5013348;28;20498;-75
2022/02/19 00:30:11;;;;;;;0.40;0.20;;;;;;;8.45;57.69;98828.22;5013349;28;20447;-73
2022/02/19 00:32:38;;;;;;;0.40;0.20;;;;;;;8.40;59.03;98841.13;5013304;28;20460;-74
2022/02/19 00:35:05;;;;;;;0.40;0.30;;;;;;;8.34;58.86;98848.59;5013309;28;20455;-73
2022/02/19 00:37:33;;;;;;;0.40;0.20;;;;;;;8.37;58.66;98836.38;5013319;28;20476;-73
2022/02/19 00:39:59;;;;;;;0.40;0.30;;;;;;;8.34;57.70;98825.09;5013302;28;20510;-73
2022/02/19 00:42:26;;;;;;;0.40;0.30;;;;;;;8.34;58.44;98822.41;5013034;28;20492;-73
2022/02/19 00:44:53;;;;;;;0.40;0.20;;;;;;;8.34;58.39;98835.09;5013099;28;20471;-73
2022/02/19 00:47:19;;;;;;;0.40;0.30;;;;;;;8.35;57.19;98833.97;5013053;28;20448;-74
2022/02/19 00:49:46;;;;;;;0.40;0.30;;;;;;;8.31;58.15;98838.44;5013092;28;20863;-74
2022/02/19 00:52:12;;;;;;;0.40;0.30;;;;;;;8.28;57.57;98802.16;5012998;28;20467;-74
2022/02/19 00:54:40;;;;;;;0.40;0.30;;;;;;;8.29;56.78;98835.31;5012854;28;20447;-74
2022/02/19 00:57:06;;;;;;;0.40;0.30;;;;;;;8.30;56.07;98853.06;5012869;28;20436;-74
2022/02/19 00:59:33;;;;;;;0.40;0.30;;;;;;;8.28;56.21;98855.31;5013319;28;20881;-75
2022/02/19 01:01:59;;;;;;;0.40;0.30;;;;;;;8.23;57.86;98872.44;5012499;28;20495;-76
2022/02/19 01:04:26;;;;;;;0.40;0.23;;;;;;;8.23;55.88;98875.16;5012999;28;20854;-76
2022/02/19 01:06:52;;;;;;;0.40;0.23;;;;;;;8.16;55.07;98847.13;5013121;28;20459;-74
2022/02/19 01:09:20;;;;;;;0.40;0.30;;;;;;;8.18;55.35;98844.88;5015564;28;20957;-75
2022/02/19 01:11:47;;;;;;;0.40;0.30;;;;;;;8.15;55.11;98851.75;5016672;28;20503;-75
2022/02/19 01:14:14;;;;;;;0.40;0.27;;;;;;;8.11;54.67;98850.81;5016881;28;20478;-77
2022/02/19 01:16:40;;;;;;;0.40;0.30;;;;;;;8.17;54.05;98854.09;5016822;28;20813;-74
2022/02/19 01:19:07;;;;;;;0.40;0.20;;;;;;;8.14;54.28;98838.56;5016146;28;20941;-74
2022/02/19 01:21:33;;;;;;;0.40;0.20;;;;;;;8.14;53.44;98858.22;5016239;28;20491;-75
2022/02/19 01:24:00;;;;;;;0.40;0.30;;;;;;;8.09;53.59;98859.22;5016300;28;20495;-74
2022/02/19 01:26:28;;;;;;;0.40;0.30;;;;;;;8.09;53.47;98856.53;5016057;28;20448;-74
2022/02/19 01:28:55;;;;;;;0.40;0.20;;;;;;;8.07;53.85;98857.97;5016288;28;20440;-74
2022/02/19 01:31:22;;;;;;;0.40;0.30;;;;;;;8.02;53.27;98850.09;5016284;28;20443;-75
2022/02/19 01:33:48;;;;;;;0.40;0.30;;;;;;;8.04;52.45;98851.31;5016222;28;20479;-74
2022/02/19 01:36:15;;;;;;;0.40;0.30;;;;;;;8.04;53.63;98839.75;5016360;28;20843;-75
2022/02/19 01:38:41;;;;;;;0.40;0.30;;;;;;;8.07;52.33;98853.38;5016261;28;20498;-75
2022/02/19 01:41:08;;;;;;;0.40;0.30;;;;;;;8.09;51.69;98870.00;5015812;28;20444;-75
2022/02/19 01:43:34;;;;;;;0.40;0.30;;;;;;;8.13;51.34;98853.19;5016337;28;20460;-75
2022/02/19 01:46:02;;;;;;;0.40;0.30;;;;;;;8.12;51.25;98873.19;5016183;28;20444;-76
2022/02/19 01:48:29;;;;;;;0.40;0.20;;;;;;;8.12;50.39;98887.44;5016318;28;20443;-75
2022/02/19 01:50:56;;;;;;;0.40;0.30;;;;;;;8.09;51.24;98858.44;5015985;28;20456;-75
2022/02/19 01:53:23;;;;;;;0.40;0.20;;;;;;;8.13;49.74;98859.34;5015893;28;20467;-74
2022/02/19 01:55:49;;;;;;;0.40;0.30;;;;;;;8.13;49.63;98864.75;5015973;28;20475;-75
2022/02/19 01:58:16;;;;;;;0.40;0.30;;;;;;;8.13;50.60;98864.75;5015486;28;20973;-74
2022/02/19 02:00:44;;;;;;;0.40;0.30;;;;;;;8.11;49.70;98867.00;5015415;28;20471;-76
2022/02/19 02:03:12;;;;;;;0.40;0.20;;;;;;;8.11;49.70;98877.78;5015717;28;20491;-76
2022/02/19 02:05:39;;;;;;;0.40;0.20;;;;;;;8.13;49.60;98880.94;5015771;28;20452;-74
2022/02/19 02:08:08;;;;;;;0.40;0.20;;;;;;;8.09;49.26;98850.34;5015789;28;20444;-77
2022/02/19 02:10:35;;;;;;;0.40;0.30;;;;;;;8.09;49.35;98870.00;5015875;28;20444;-73
2022/02/19 02:13:04;;;;;;;0.40;0.20;;;;;;;8.09;49.05;98885.41;5015506;28;20471;-76
2022/02/19 02:15:32;;;;;;;0.40;0.30;;;;;;;8.06;48.95;98861.78;5015285;28;20938;-75
2022/02/19 02:17:59;;;;;;;0.40;0.20;;;;;;;8.07;50.14;98879.56;5015394;28;20451;-75
2022/02/19 02:20:28;;;;;;;0.40;0.20;;;;;;;8.08;48.56;98854.16;5014617;28;20452;-74
2022/02/19 02:22:56;;;;;;;0.40;0.27;;;;;;;8.10;49.64;98843.81;5015471;28;20488;-75
2022/02/19 02:25:25;;;;;;;0.40;0.20;;;;;;;8.08;49.85;98854.94;5015367;28;20451;-75
2022/02/19 02:27:52;;;;;;;0.40;0.30;;;;;;;8.01;49.13;98829.59;5015133;28;20458;-76
2022/02/19 02:30:18;;;;;;;0.40;0.27;;;;;;;7.99;49.27;98832.63;5015408;28;20452;-75
2022/02/19 02:32:45;;;;;;;0.40;0.20;;;;;;;7.89;50.13;98861.91;5015121;28;20468;-75
2022/02/19 02:35:11;;;;;;;0.40;0.30;;;;;;;7.92;48.94;98853.13;5015158;28;20455;-75
2022/02/19 02:37:38;;;;;;;0.40;0.30;;;;;;;7.85;50.17;98864.44;5015059;28;20475;-76
2022/02/19 02:40:07;;;;;;;0.40;0.30;;;;;;;7.84;48.98;98858.25;5014914;28;20968;-76
2022/02/19 02:42:34;;;;;;;0.40;0.20;;;;;;;7.87;48.92;98881.06;5014873;28;20927;-75
2022/02/19 02:45:00;;;;;;;0.40;0.30;;;;;;;7.89;48.67;98860.00;5014819;28;20432;-75
2022/02/19 02:47:26;;;;;;;0.40;0.20;;;;;;;7.88;48.87;98858.41;5014956;28;20448;-76
2022/02/19 02:49:54;;;;;;;0.40;0.30;;;;;;;7.90;48.37;98869.66;5014798;28;20451;-73
2022/02/19 02:52:20;;;;;;;0.40;0.20;;;;;;;7.86;49.18;98871.41;5014412;28;20886;-74
2022/02/19 02:54:47;;;;;;;0.40;0.30;;;;;;;7.75;49.26;98860.22;5014745;28;20474;-76
2022/02/19 02:57:14;;;;;;;0.40;0.30;;;;;;;7.79;48.45;98860.34;5014678;28;20440;-74
2022/02/19 02:59:41;;;;;;;0.40;0.30;;;;;;;7.77;48.72;98882.22;5014737;28;20474;-77
2022/02/19 03:02:09;;;;;;;0.40;0.27;;;;;;;7.78;48.49;98888.41;5014127;28;20491;-76
2022/02/19 03:04:36;;;;;;;0.40;0.20;;;;;;;7.73;49.01;98885.91;5014638;28;20547;-75
2022/02/19 03:07:02;;;;;;;0.40;0.30;;;;;;;7.72;48.56;98855.47;5014564;28;20448;-75
2022/02/19 03:09:28;;;;;;;0.40;0.20;;;;;;;7.72;48.89;98897.81;5014198;28;20448;-74
2022/02/19 03:11:55;;;;;;;0.40;0.30;;;;;;;7.71;48.57;98890.84;5014514;28;20440;-76
2022/02/19 03:14:23;;;;;;;0.40;0.30;;;;;;;7.73;48.84;98870.50;5014338;28;20459;-73
2022/02/19 03:16:49;;;;;;;0.40;0.30;;;;;;;7.70;48.56;98917.00;5014352;28;20453;-73
2022/02/19 03:19:16;;;;;;;0.40;0.30;;;;;;;7.73;48.51;98891.28;5014285;28;20463;-76
2022/02/19 03:21:42;;;;;;;0.40;0.30;;;;;;;7.76;48.71;98894.13;5014176;28;20946;-75
2022/02/19 03:24:09;;;;;;;0.40;0.30;;;;;;;7.76;48.83;98888.75;5014241;28;20460;-74
2022/02/19 03:26:35;;;;;;;0.40;0.27;;;;;;;7.73;49.47;98919.03;5013909;28;20448;-75
2022/02/19 03:29:01;;;;;;;0.40;0.30;;;;;;;7.72;49.29;98922.84;5014197;28;20440;-76
2022/02/19 03:31:30;;;;;;;0.40;0.27;;;;;;;7.77;49.15;98944.22;5013937;28;20448;-75
2022/02/19 03:33:56;;;;;;;0.40;0.30;;;;;;;7.82;49.12;98968.28;5013666;28;20847;-74
2022/02/19 03:36:23;;;;;;;0.40;0.30;;;;;;;7.77;48.85;98965.78;5014113;28;20456;-76
2022/02/19 03:38:49;;;;;;;0.40;0.30;;;;;;;7.80;49.08;98959.75;5014005;28;20432;-74
2022/02/19 03:41:15;;;;;;;0.40;0.20;;;;;;;7.80;48.85;98946.28;5013928;28;20444;-75
2022/02/19 03:43:42;;;;;;;0.40;0.30;;;;;;;7.80;50.10;98978.63;5013693;28;20546;-73
2022/02/19 03:46:08;;;;;;;0.40;0.20;;;;;;;7.78;48.88;98982.75;5013809;28;20450;-75
2022/02/19 03:48:36;;;;;;;0.40;0.30;;;;;;;7.75;48.91;98981.50;5013937;28;20440;-75
2022/02/19 03:51:05;;;;;;;0.40;0.30;;;;;;;7.74;48.75;99000.66;5013755;28;20444;-75
2022/02/19 03:53:31;;;;;;;0.40;0.30;;;;;;;7.75;49.03;98999.56;5013864;28;20464;-76
2022/02/19 03:55:58;;;;;;;0.40;0.30;;;;;;;7.76;48.80;98993.84;5013733;28;20455;-73
2022/02/19 03:58:24;;;;;;;0.40;0.30;;;;;;;7.71;49.62;98993.25;5013686;28;20444;-74
2022/02/19 04:00:51;;;;;;;0.40;0.20;;;;;;;7.67;49.80;99020.03;5013222;28;20988;-73
2022/02/19 04:03:17;;;;;;;0.40;0.30;;;;;;;7.66;49.83;99018.44;5013461;28;20492;-72
2022/02/19 04:05:46;;;;;;;0.40;0.30;;;;;;;7.72;50.31;99037.94;5013475;28;20440;-73
2022/02/19 04:08:13;;;;;;;0.40;0.30;;;;;;;7.74;50.15;99057.25;5013562;28;20444;-74
2022/02/19 04:10:39;;;;;;;0.40;0.30;;;;;;;7.75;49.89;99054.25;5013614;28;20812;-73
2022/02/19 04:13:06;;;;;;;0.40;0.30;;;;;;;7.73;49.66;99036.81;5013111;28;20461;-74
2022/02/19 04:15:32;;;;;;;0.40;0.30;;;;;;;7.70;50.47;99059.81;5013174;28;20455;-74
2022/02/19 04:17:58;;;;;;;0.40;0.30;;;;;;;7.63;51.31;99051.41;5013142;28;20945;-74
2022/02/19 04:20:26;;;;;;;0.40;0.20;;;;;;;7.62;52.50;99054.44;5013409;28;20444;-73
2022/02/19 04:22:53;;;;;;;0.40;0.30;;;;;;;7.64;52.74;99109.59;5013214;28;20492;-72
2022/02/19 04:25:20;;;;;;;0.40;0.20;;;;;;;7.54;53.75;99059.50;5013342;28;20436;-72
2022/02/19 04:27:47;;;;;;;0.40;0.20;;;;;;;7.49;54.95;99067.75;5013345;28;20448;-73
2022/02/19 04:30:13;;;;;;;0.40;0.30;;;;;;;7.44;55.66;99069.81;5013311;28;20454;-74
2022/02/19 04:32:40;;;;;;;0.40;0.30;;;;;;;7.40;56.79;99085.03;5013192;28;20475;-75
2022/02/19 04:35:07;;;;;;;0.40;0.30;;;;;;;7.41;56.56;99100.88;5012973;28;20945;-73
2022/02/19 04:37:33;;;;;;;0.40;0.30;;;;;;;7.36;57.13;99117.19;5013362;28;20444;-75
2022/02/19 04:40:01;;;;;;;0.40;0.30;;;;;;;7.34;58.00;99111.31;5012907;28;20987;-73
2022/02/19 04:42:28;;;;;;;0.40;0.30;;;;;;;7.31;58.63;99106.56;5013138;28;20611;-74
2022/02/19 04:44:54;;;;;;;0.40;0.20;;;;;;;7.26;58.97;99118.28;5015805;28;20452;-75
2022/02/19 04:47:21;;;;;;;0.40;0.30;;;;;;;7.23;59.25;99148.53;5017145;28;20455;-76
2022/02/19 04:49:47;;;;;;;0.40;0.30;;;;;;;7.26;59.93;99145.22;5017165;28;20455;-75
2022/02/19 04:52:14;;;;;;;0.40;0.30;;;;;;;7.21;60.11;99174.97;5016905;28;20464;-75
2022/02/19 04:54:40;;;;;;;0.40;0.30;;;;;;;7.12;59.84;99160.69;5017033;28;20438;-75
2022/02/19 04:57:08;;;;;;;0.40;0.30;;;;;;;7.14;59.87;99165.78;5016948;28;20452;-76
2022/02/19 04:59:35;;;;;;;0.40;0.30;;;;;;;7.13;60.31;99181.16;5016792;28;20451;-75
2022/02/19 05:02:01;;;;;;;0.40;0.30;;;;;;;7.15;60.31;99181.63;5016441;28;20459;-76
2022/02/19 05:04:28;;;;;;;0.40;0.30;;;;;;;7.11;60.79;99187.94;5016781;28;20456;-76
2022/02/19 05:06:54;;;;;;;0.40;0.30;;;;;;;7.11;61.17;99226.44;5016806;28;20454;-75
2022/02/19 05:09:20;;;;;;;0.40;0.30;;;;;;;7.07;61.89;99218.19;5016777;28;20509;-76
2022/02/19 05:11:47;;;;;;;0.40;0.30;;;;;;;7.09;61.89;99223.25;5016722;28;20436;-76
2022/02/19 05:14:14;;;;;;;0.40;0.30;;;;;;;7.11;61.95;99229.13;5017811;28;20467;-76
2022/02/19 05:16:41;;;;;;;0.40;0.30;;;;;;;7.04;62.38;99223.41;5016835;28;20452;-76
2022/02/19 05:19:07;;;;;;;0.40;0.27;;;;;;;7.06;62.60;99232.75;5016639;28;20518;-76
2022/02/19 05:21:34;;;;;;;0.40;0.30;;;;;;;7.06;62.60;99240.03;5016752;28;20535;-76
2022/02/19 05:24:00;;;;;;;0.40;0.30;;;;;;;7.01;63.30;99264.41;5016878;28;20499;-77
2022/02/19 05:26:27;;;;;;;0.40;0.20;;;;;;;7.00;63.06;99266.31;5017093;28;20447;-79
2022/02/19 05:28:53;;;;;;;0.40;0.30;;;;;;;6.93;63.50;99265.16;5016953;28;20456;-75
2022/02/19 05:31:21;;;;;;;0.40;0.20;;;;;;;6.92;64.00;99287.78;5018024;28;20455;-77
2022/02/19 05:33:48;;;;;;;0.40;0.30;;;;;;;6.89;63.99;99283.03;5018030;28;20515;-77
2022/02/19 05:36:14;;;;;;;0.40;0.30;;;;;;;6.89;64.79;99318.00;5016928;28;20440;-77
2022/02/19 05:38:41;;;;;;;0.40;0.20;;;;;;;6.87;64.63;99321.00;5017713;28;20444;-77
2022/02/19 05:41:07;;;;;;;0.40;0.30;;;;;;;6.83;64.66;99303.88;5016652;28;20443;-76
2022/02/19 05:43:33;;;;;;;0.40;0.30;;;;;;;6.79;65.57;99344.06;5016418;28;20561;-77
2022/02/19 05:46:00;;;;;;;0.40;0.30;;;;;;;6.76;65.67;99346.56;5016985;28;20853;-76
2022/02/19 05:48:28;;;;;;;0.40;0.23;;;;;;;6.69;65.64;99328.19;5016645;28;20463;-76
2022/02/19 05:50:55;;;;;;;0.40;0.20;;;;;;;6.70;66.06;99363.94;5016459;28;20478;-77
2022/02/19 05:53:21;;;;;;;0.40;0.30;;;;;;;6.65;66.88;99347.94;5015972;28;20463;-75
2022/02/19 05:55:47;;;;;;;0.40;0.30;;;;;;;6.61;67.97;99355.03;5015494;28;20809;-74
2022/02/19 05:58:14;;;;;;;0.40;0.30;;;;;;;6.61;67.82;99371.94;5016110;28;20439;-75
2022/02/19 06:00:40;;;;;;;0.40;0.20;;;;;;;6.55;68.88;99383.91;5015294;28;20474;-75
2022/02/19 06:03:07;;;;;;;0.40;0.30;;;;;;;6.53;69.13;99400.38;5014754;28;20487;-74
2022/02/19 06:05:35;;;;;;;0.40;0.30;;;;;;;6.50;69.83;99409.03;5014678;28;20522;-74
2022/02/19 06:08:01;;;;;;;0.50;0.40;;;;;;;6.50;69.70;99395.59;5014280;28;20447;-75
2022/02/19 06:10:28;;;;;;;0.40;0.20;;;;;;;6.53;70.08;99404.97;5014554;28;20451;-74
2022/02/19 06:12:54;;;;;;;0.40;0.30;;;;;;;6.42;71.01;99422.41;5014422;28;20487;-75
2022/02/19 06:15:21;;;;;;;0.40;0.30;;;;;;;6.44;70.47;99444.44;5014580;28;20448;-74
2022/02/19 06:17:47;;;;;;;0.40;0.30;;;;;;;6.49;70.74;99485.47;5014379;28;20450;-75
2022/02/19 06:20:13;;;;;;;0.40;0.30;;;;;;;6.44;71.07;99463.25;5014051;28;20855;-75
2022/02/19 06:22:41;;;;;;;0.40;0.20;;;;;;;6.49;71.39;99484.66;5014196;28;20538;-75
2022/02/19 06:25:08;;;;;;;0.40;0.30;;;;;;;6.47;71.24;99511.06;5014416;28;20472;-75
2022/02/19 06:27:38;;;;;;;0.40;0.30;;;;;;;6.34;72.16;99490.38;5014370;28;20459;-76
2022/02/19 06:30:06;;;;;;;0.40;0.20;;;;;;;6.30;72.66;99544.75;5014648;28;20459;-75
2022/02/19 06:32:32;;;;;;;0.40;0.30;;;;;;;6.27;72.95;99515.75;5014294;28;20460;-75
2022/02/19 06:34:59;;;;;;;0.40;0.30;;;;;;;6.29;73.18;99515.47;5014346;28;20814;-76
2022/02/19 06:37:25;;;;;;;0.40;0.30;;;;;;;6.25;73.38;99526.00;5014279;28;20459;-76
2022/02/19 06:39:53;;;;;;;0.40;0.30;;;;;;;6.31;73.35;99524.03;5014222;28;20498;-74
2022/02/19 06:42:19;;;;;;;0.40;0.30;;;;;;;6.31;73.14;99532.09;5014018;28;20845;-74
2022/02/19 06:44:45;;;;;;;0.40;0.30;;;;;;;6.28;73.85;99541.53;5014074;28;20529;-73
2022/02/19 06:47:12;;;;;;;0.40;0.30;;;;;;;6.23;74.56;99560.47;5014039;28;20447;-74
2022/02/19 06:49:38;;;;;;;0.40;0.30;;;;;;;6.23;74.86;99551.59;5013999;28;20452;-74
2022/02/19 06:52:06;;;;;;;0.40;0.27;;;;;;;6.23;75.40;99554.28;5013885;28;20459;-74
2022/02/19 06:54:32;;;;;;;0.40;0.20;;;;;;;6.21;76.30;99586.06;5013942;28;20440;-71
2022/02/19 06:57:00;;;;;;;0.40;0.30;;;;;;;6.14;77.65;99583.75;5013837;28;20448;-72
2022/02/19 06:59:26;;;;;;;0.40;0.30;;;;;;;6.15;77.43;99595.28;5013839;28;20450;-73
2022/02/19 07:01:53;;;;;;;0.40;0.30;;;;;;;6.12;77.45;99607.44;4979123;28;1016238;-73
2022/02/19 07:04:19;;;;;;;0.40;0.20;;;;;;;6.08;78.22;99619.88;5015463;28;20229;-75
2022/02/19 07:06:46;;;;;;;0.40;0.30;;;;;;;6.06;78.22;99609.44;5013733;28;20973;-73
2022/02/19 07:09:12;;;;;;;0.40;0.30;;;;;;;6.02;79.38;99629.94;5014536;28;20454;-72
2022/02/19 07:11:39;;;;;;;0.40;0.30;;;;;;;5.91;80.23;99635.72;5015436;28;20969;-72
2022/02/19 07:14:07;;;;;;;2.87;2.70;;;;;;;5.86;81.14;99627.75;5014190;28;20467;-72
2022/02/19 07:16:33;;;;;;;0.40;0.30;;;;;;;5.78;82.38;99635.38;5014280;28;20448;-71
2022/02/19 07:19:00;;;;;;;0.40;0.30;;;;;;;5.77;82.12;99670.59;5013913;28;20937;-72
2022/02/19 07:21:26;;;;;;;0.40;0.30;;;;;;;5.66;82.32;99651.13;5013962;28;20437;-73
2022/02/19 07:23:53;;;;;;;0.40;0.30;;;;;;;5.67;81.87;99650.06;5014015;28;20480;-73
2022/02/19 07:26:19;;;;;;;0.40;0.30;;;;;;;5.69;83.07;99655.94;5014083;28;20493;-72
2022/02/19 07:28:46;;;;;;;0.40;0.30;;;;;;;5.71;81.86;99666.38;5013992;28;20448;-72
2022/02/19 07:31:14;;;;;;;0.40;0.30;;;;;;;5.74;82.28;99682.72;5014010;28;20444;-73
2022/02/19 07:33:40;;;;;;;0.40;0.30;;;;;;;5.75;82.18;99686.22;5014054;28;20456;-73
2022/02/19 07:36:07;;;;;;;0.40;0.30;;;;;;;5.82;82.66;99683.97;5014138;28;20440;-72
2022/02/19 07:38:34;;;;;;;0.40;0.30;;;;;;;5.82;81.51;99725.06;5013951;28;20448;-74
2022/02/19 07:41:00;;;;;;;0.40;0.27;;;;;;;5.93;80.18;99724.94;5013927;28;20484;-72
2022/02/19 07:43:27;;;;;;;0.40;0.30;;;;;;;5.94;80.62;99740.00;5013757;28;20491;-74
2022/02/19 07:45:53;;;;;;;0.40;0.30;;;;;;;6.01;80.25;99738.53;5013896;28;20857;-75
2022/02/19 07:48:21;;;;;;;0.40;0.30;;;;;;;5.96;79.95;99759.31;5013889;28;20483;-73
2022/02/19 07:58:59;;;;;;;0.40;0.30;;;;;;;6.09;80.26;99774.72;5013184;28;20443;-72
2022/02/19 08:01:26;;;;;;;0.40;0.30;;;;;;;6.09;80.00;99774.72;5013101;28;20475;-74
2022/02/19 08:03:53;;;;;;;0.40;0.30;;;;;;;6.10;79.51;99776.31;5013078;28;20500;-73
2022/02/19 08:06:20;;;;;;;0.40;0.30;;;;;;;6.11;79.96;99796.75;5013297;28;20451;-74
2022/02/19 08:08:46;;;;;;;0.40;0.30;;;;;;;6.19;79.00;99785.31;5013206;28;20440;-72
2022/02/19 08:11:13;;;;;;;0.40;0.20;;;;;;;6.23;78.07;99789.00;5013232;28;20448;-72
2022/02/19 08:13:40;;;;;;;0.40;0.30;;;;;;;6.29;78.03;99809.38;5012895;28;21112;-72
2022/02/19 08:16:08;;;;;;;0.40;0.20;;;;;;;6.26;78.46;99818.03;5013172;28;20463;-73
2022/02/19 08:18:35;;;;;;;0.40;0.30;;;;;;;6.24;77.93;99830.16;5012288;28;20458;-76
2022/02/19 08:21:04;;;;;;;0.40;0.20;;;;;;;6.27;78.56;99843.81;5013098;28;20455;-76
2022/02/19 08:23:30;;;;;;;0.40;0.30;;;;;;;6.30;78.57;99862.06;5013042;28;20495;-74
2022/02/19 08:25:57;;;;;;;0.40;0.30;;;;;;;6.21;79.77;99877.25;5013079;28;20870;-73
2022/02/19 08:28:24;;;;;;;0.40;0.30;;;;;;;6.15;80.94;99864.94;5012757;28;20937;-73
2022/02/19 08:30:51;;;;;;;0.40;0.30;;;;;;;6.06;81.92;99883.63;5013012;28;20498;-74
2022/02/19 08:33:18;;;;;;;0.40;0.30;;;;;;;6.03;82.48;99892.28;5012637;28;20493;-74
2022/02/19 08:35:44;;;;;;;0.40;0.30;;;;;;;5.99;82.82;99909.25;5013029;28;20463;-72
2022/02/19 08:38:12;;;;;;;0.40;0.30;;;;;;;5.92;83.90;99885.41;5012912;28;20440;-75
2022/02/19 08:40:39;;;;;;;0.40;0.30;;;;;;;5.93;84.15;99896.94;5012993;28;20447;-74
2022/02/19 08:43:05;;;;;;;0.40;0.30;;;;;;;5.93;84.08;99907.69;5012810;28;20468;-75
2022/02/19 08:45:32;;;;;;;0.40;0.30;;;;;;;5.90;83.89;99933.25;5012656;28;20467;-75
2022/02/19 08:48:04;;;;;;;0.40;0.30;;;;;;;5.78;85.23;99920.19;5012863;28;20490;-75
2022/02/19 08:50:31;;;;;;;0.40;0.30;;;;;;;5.76;85.37;99930.44;5013025;28;20431;-74
2022/02/19 08:52:58;;;;;;;0.40;0.30;;;;;;;5.77;85.10;99942.00;5012750;28;20459;-73
2022/02/19 08:55:27;;;;;;;0.40;0.30;;;;;;;5.71;86.26;99940.44;5012835;28;20440;-73
2022/02/19 08:57:53;;;;;;;0.40;0.30;;;;;;;5.78;85.23;99947.06;5012956;28;20448;-74
2022/02/19 09:00:20;;;;;;;0.40;0.30;;;;;;;5.75;84.93;99958.38;5012772;28;20942;-73
2022/02/19 09:02:46;;;;;;;0.40;0.30;;;;;;;5.78;85.50;99984.69;5012802;28;20474;-74
2022/02/19 09:05:15;;;;;;;0.40;0.30;;;;;;;5.72;87.17;100006.53;5012819;28;20844;-73
2022/02/19 09:07:42;;;;;;;0.40;0.30;;;;;;;5.60;89.17;100000.72;5013431;28;20522;-76
2022/02/19 09:10:11;;;;;;;0.40;0.30;;;;;;;5.49;90.21;99994.63;5012525;28;20954;-75
2022/02/19 09:12:45;;;;;;;0.40;0.30;;;;;;;5.49;90.00;100000.81;5012615;28;20476;-75
2022/02/19 09:15:13;;;;;;;0.40;0.30;;;;;;;5.47;90.23;100005.66;5015880;28;20977;-78
2022/02/19 09:17:39;;;;;;;0.40;0.30;;;;;;;5.47;90.84;100029.03;5013068;28;20454;-78
2022/02/19 09:20:08;;;;;;;0.40;0.30;;;;;;;5.50;89.68;100031.97;5013862;28;20448;-77
2022/02/19 09:22:34;;;;;;;0.40;0.30;;;;;;;5.50;89.77;100033.84;5012636;28;20479;-75
2022/02/19 09:25:01;;;;;;;0.40;0.20;;;;;;;5.52;89.14;100037.03;5012563;28;20488;-75
2022/02/19 09:27:28;;;;;;;0.40;0.20;;;;;;;5.57;89.58;100047.75;5012367;28;20451;-75
2022/02/19 09:29:56;;;;;;;0.40;0.30;;;;;;;5.38;93.00;100052.19;5013375;28;20450;-75
2022/02/19 09:32:22;;;;;;;0.40;0.30;;;;;;;5.26;95.41;100047.97;5016144;28;20490;-74
2022/02/19 09:34:48;;;;;;;0.40;0.20;;;;;;;5.17;96.37;100071.13;5016051;28;20447;-74
2022/02/19 09:37:15;;;;;;;0.40;0.30;;;;;;;5.10;96.88;100067.94;5016092;28;20436;-74
2022/02/19 09:39:41;;;;;;;0.40;0.30;;;;;;;4.97;96.96;100071.25;5015895;28;20551;-74
2022/02/19 09:42:11;;;;;;;0.40;0.30;;;;;;;4.94;97.27;100080.63;5015633;28;20444;-74
2022/02/19 09:44:38;;;;;;;0.40;0.20;;;;;;;5.00;96.59;100108.25;5015794;28;20598;-75
2022/02/19 09:47:07;;;;;;;0.40;0.30;;;;;;;5.02;95.38;100098.06;5015821;28;20440;-75
2022/02/19 09:49:36;;;;;;;0.40;0.30;;;;;;;5.09;93.65;100101.25;5015787;28;20479;-76
2022/02/19 09:52:02;;;;;;;0.40;0.30;;;;;;;5.05;92.64;100127.03;5015578;28;20464;-76
2022/02/19 09:54:29;;;;;;;0.40;0.30;;;;;;;5.11;93.26;100120.56;5015584;28;20444;-75
2022/02/19 09:56:55;;;;;;;0.40;0.30;;;;;;;5.19;93.43;100146.81;5015353;28;20432;-74
2022/02/19 09:59:22;;;;;;;0.40;0.30;;;;;;;5.29;91.14;100125.28;5016186;28;20440;-77
2022/02/19 10:02:00;;;;;;;0.40;0.30;;;;;;;5.32;90.61;100142.75;5016645;28;20456;-78
2022/02/19 10:04:28;;;;;;;0.73;0.73;;;;;;;5.35;89.53;100144.06;5015656;28;20522;-76
2022/02/19 10:06:58;;;;;;;0.40;0.20;;;;;;;5.36;90.23;100145.66;5015414;28;20455;-76
2022/02/19 10:09:25;;;;;;;0.40;0.30;;;;;;;5.36;88.99;100156.38;5016413;28;20421;-76
2022/02/19 10:11:52;;;;;;;0.40;0.30;;;;;;;5.42;89.02;100147.25;5015606;28;20448;-75
2022/02/19 10:14:26;;;;;;;0.40;0.20;;;;;;;5.50;88.11;100171.63;5014953;28;20934;-74
2022/02/19 10:17:11;;;;;;;0.40;0.30;;;;;;;5.65;85.84;100184.16;5015355;28;20448;-78
2022/02/19 10:19:53;;;;;;;0.40;0.30;;;;;;;5.73;85.18;100175.53;5014942;28;20428;-76
2022/02/19 10:22:22;;;;;;;0.40;0.20;;;;;;;5.81;83.33;100174.13;5016069;28;20804;-78
2022/02/19 10:24:52;;;;;;;0.40;0.20;;;;;;;5.97;81.68;100183.72;5015590;28;20524;-75
2022/02/19 10:27:19;;;;;;;0.53;0.53;;;;;;;6.10;80.87;100190.34;5014891;28;20938;-75
2022/02/19 10:29:51;;;;;;;0.40;0.30;;;;;;;6.25;79.14;100219.00;5014750;28;20795;-75
2022/02/19 10:32:18;;;;;;;0.40;0.30;;;;;;;6.38;79.65;100210.31;5014956;28;20467;-75
2022/02/19 10:34:56;;;;;;;0.40;0.30;;;;;;;6.40;76.47;100218.06;5015383;28;20451;-75
2022/02/19 10:37:24;;;;;;;0.40;0.20;;;;;;;6.50;75.68;100236.81;5015091;28;20447;-75
2022/02/19 10:39:51;;;;;;;0.40;0.23;;;;;;;6.57;77.05;100221.16;5014903;28;20470;-75
2022/02/19 10:42:18;;;;;;;0.40;0.30;;;;;;;6.67;75.23;100234.50;5013828;28;20468;-76
2022/02/19 10:44:45;;;;;;;0.40;0.30;;;;;;;6.73;74.61;100237.94;5014726;28;20480;-71
2022/02/19 10:47:19;;;;;;;0.40;0.20;;;;;;;6.80;75.22;100233.03;5014623;28;20475;-75
2022/02/19 10:50:07;;;;;;;0.40;0.30;;;;;;;6.83;74.42;100244.06;5014373;28;20938;-73
2022/02/19 10:52:34;;;;;;;0.40;0.30;;;;;;;6.83;73.40;100238.66;5014511;28;20463;-74
2022/02/19 10:55:09;;;;;;;0.40;0.20;;;;;;;6.78;73.44;100265.63;5014670;28;20436;-73
2022/02/19 10:57:40;;;;;;;0.40;0.20;;;;;;;6.76;73.43;100257.03;5014657;28;20460;-73
2022/02/19 11:00:12;;;;;;;0.40;0.30;;;;;;;6.78;73.69;100254.06;5014075;28;20467;-73
2022/02/19 11:02:39;;;;;;;0.40;0.30;;;;;;;6.86;73.33;100249.94;5014367;28;20467;-72
2022/02/19 11:05:09;;;;;;;0.40;0.30;;;;;;;6.86;71.67;100245.34;5014457;28;20484;-72
2022/02/19 11:07:36;;;;;;;0.40;0.30;;;;;;;6.88;72.16;100253.16;5014358;28;20479;-74
2022/02/19 11:10:03;;;;;;;0.40;0.30;;;;;;;6.86;71.71;100242.66;5014325;28;20467;-72
2022/02/19 11:12:30;;;;;;;0.40;0.30;;;;;;;6.94;72.38;100255.50;5014209;28;20471;-72
2022/02/19 11:14:57;;;;;;;0.40;0.30;;;;;;;6.97;71.61;100256.84;5014311;28;21061;-74
2022/02/19 11:17:24;;;;;;;0.40;0.30;;;;;;;7.02;71.23;100256.78;5014271;28;20471;-76
2022/02/19 11:19:51;;;;;;;0.40;0.30;;;;;;;7.13;69.69;100254.78;5014428;28;20819;-73
2022/02/19 11:22:21;;;;;;;0.40;0.30;;;;;;;7.20;67.58;100266.81;5014362;28;20547;-73
2022/02/19 11:24:48;;;;;;;0.40;0.27;;;;;;;7.19;67.52;100262.53;5014259;28;21009;-72
2022/02/19 11:27:16;;;;;;;0.40;0.20;;;;;;;7.25;66.83;100247.91;5014419;28;20498;-72
2022/02/19 11:29:44;;;;;;;0.40;0.20;;;;;;;7.25;66.53;100264.06;5014184;28;20444;-73
2022/02/19 11:32:16;;;;;;;0.40;0.30;;;;;;;7.42;64.72;100297.84;5014238;28;20491;-73
2022/02/19 11:34:48;;;;;;;0.40;0.30;;;;;;;7.49;64.61;100263.28;5014214;28;20433;-73
2022/02/19 11:37:17;;;;;;;0.40;0.30;;;;;;;7.69;63.47;100289.16;5014076;28;20488;-73
2022/02/19 11:40:04;;;;;;;0.40;0.20;;;;;;;7.85;62.03;100293.28;5014051;28;20531;-74
2022/02/19 11:42:41;;;;;;;0.40;0.20;;;;;;;7.97;61.38;100285.56;5013727;28;20914;-72
2022/02/19 11:45:26;;;;;;;0.40;0.30;;;;;;;8.02;61.07;100285.50;5013987;28;20890;-72
2022/02/19 11:47:56;;;;;;;0.40;0.27;;;;;;;8.02;59.15;100298.19;5014057;28;20444;-74